Decoded Metar for LESU (Andorra - La Seu d'Urgell in SPAIN) (IATA:LEU) | Meteo·Mobile Aviation Weather
aviador You're here:

LESU Decoded Metar

Andorra - La Seu d'Urgell in SPAIN
Report Time2020-02-23 12:00:00
UTC Time2020-02-23 12:07:32
Flight Rules vfr VFR
WindVRB at 02 kt
Visibility9999 m
Phenomena:N/A
Clouds:N/A
Expected CloudBase > 6,400 ft AGL from Temp-Dew spread
CeilingNone
Temp15°C (ISA +5)
Dew Point-1°C (34% RH)
AAT12.2°C
QNH1033 hPa
Density Alt2,654 ft
Elevation2,625 ft
Report Wrong Elevation
Raw Report
METAR LESU 231200Z VRB02KT CAVOK 15/M01 Q1033=

Extra information for LESU:More info

Metar Taf Metar & Taf Last 4 Metars F.Rules Stats Wind Profile Meteogram Temp Stats Airport Information Weather charts Add Link Nearby VenuesMetar ALERT Operation Metar Decoded Social comments